createdAt,value
2022-11-22T00:00:58.227Z,80.76
2022-11-22T00:03:26.162Z,81.29
2022-11-22T00:05:54.329Z,81.06
2022-11-22T00:08:22.250Z,80.89
2022-11-22T00:10:52.329Z,81.04
2022-11-22T00:13:21.187Z,80.72
2022-11-22T00:15:59.942Z,80.92
2022-11-22T00:18:28.288Z,80.28
2022-11-22T00:20:56.506Z,81.35
2022-11-22T00:23:24.403Z,81.94
2022-11-22T00:25:53.689Z,81.77
2022-11-22T00:28:23.732Z,81.84
2022-11-22T00:30:51.726Z,81.55
2022-11-22T00:33:19.761Z,82.56
2022-11-22T00:35:48.096Z,82.07
2022-11-22T00:38:16.140Z,81.33
2022-11-22T00:40:44.456Z,82.13
2022-11-22T00:43:13.759Z,81.39
2022-11-22T00:45:43.229Z,81.18
2022-11-22T00:48:11.223Z,81.81
2022-11-22T00:50:39.523Z,81.45
2022-11-22T00:53:08.028Z,82.11
2022-11-22T00:55:36.577Z,82.93
2022-11-22T00:58:04.482Z,82.16
2022-11-22T01:00:33.883Z,82.36
2022-11-22T01:03:01.790Z,81.75
2022-11-22T01:05:29.947Z,81.11
2022-11-22T01:07:58.027Z,81.13
2022-11-22T01:10:25.915Z,81.45
2022-11-22T01:12:53.765Z,81.74
2022-11-22T01:15:21.740Z,83.21
2022-11-22T01:17:50.927Z,83.44
2022-11-22T01:20:18.889Z,82.74
2022-11-22T01:22:46.989Z,82.96
2022-11-22T01:25:14.901Z,83.05
2022-11-22T01:27:42.799Z,82.88
2022-11-22T01:30:11.519Z,82.39
2022-11-22T01:32:40.054Z,83.03
2022-11-22T01:35:10.777Z,82.82
2022-11-22T01:37:38.915Z,82.31
2022-11-22T01:40:08.374Z,83.25
2022-11-22T01:42:50.398Z,82.99
2022-11-22T01:45:42.239Z,83.09
2022-11-22T01:48:22.612Z,83.34
2022-11-22T01:50:57.192Z,83.70
2022-11-22T01:53:29.484Z,83.07
2022-11-22T01:55:59.390Z,83.53
2022-11-22T01:58:30.425Z,83.97
2022-11-22T02:00:58.895Z,84.44
2022-11-22T02:03:30.312Z,84.45
2022-11-22T02:06:00.513Z,83.65
2022-11-22T02:08:35.997Z,84.23
2022-11-22T02:11:05.063Z,84.06
2022-11-22T02:13:36.103Z,84.58
2022-11-22T02:16:04.765Z,84.09
2022-11-22T02:18:36.017Z,84.26
2022-11-22T02:21:06.158Z,84.15
2022-11-22T02:23:53.935Z,83.81
2022-11-22T02:26:26.819Z,84.25
2022-11-22T02:28:57.555Z,84.03
2022-11-22T02:31:35.612Z,84.27
2022-11-22T02:34:03.532Z,84.47
2022-11-22T02:36:34.723Z,84.65
2022-11-22T02:39:02.655Z,84.64
2022-11-22T02:41:33.143Z,84.62
2022-11-22T02:44:01.173Z,84.66
2022-11-22T02:46:29.047Z,85.25
2022-11-22T02:48:56.956Z,85.40
2022-11-22T02:51:26.375Z,84.95
2022-11-22T02:53:54.631Z,85.10
2022-11-22T02:56:22.523Z,85.17
2022-11-22T02:58:51.759Z,84.62
2022-11-22T03:01:19.796Z,84.28
2022-11-22T03:03:47.772Z,83.81
2022-11-22T03:06:15.623Z,84.16
2022-11-22T03:08:44.353Z,83.99
2022-11-22T03:11:12.598Z,84.62
2022-11-22T03:13:40.657Z,84.61
2022-11-22T03:16:09.964Z,85.57
2022-11-22T03:18:38.645Z,85.35
2022-11-22T03:21:07.755Z,85.45
2022-11-22T03:23:36.137Z,85.17
2022-11-22T03:26:09.031Z,85.31
2022-11-22T03:28:37.139Z,85.79
2022-11-22T03:31:06.351Z,85.28
2022-11-22T03:33:36.371Z,84.72
2022-11-22T03:36:05.191Z,84.09
2022-11-22T03:38:33.066Z,84.56
2022-11-22T03:41:01.050Z,84.54
2022-11-22T03:43:29.203Z,84.97
2022-11-22T03:45:57.118Z,85.36
2022-11-22T03:48:25.241Z,84.90
2022-11-22T03:50:54.423Z,85.80
2022-11-22T03:53:23.171Z,85.54
2022-11-22T03:55:51.128Z,85.62
2022-11-22T03:58:19.046Z,86.05
2022-11-22T04:00:47.034Z,85.38
2022-11-22T04:03:15.101Z,84.60
2022-11-22T04:05:43.201Z,84.71
2022-11-22T04:08:12.477Z,84.10
2022-11-22T04:10:40.500Z,84.11
2022-11-22T04:13:08.524Z,85.03
2022-11-22T04:15:37.000Z,84.74
2022-11-22T04:18:05.032Z,84.88
2022-11-22T04:20:50.634Z,84.65
2022-11-22T04:23:21.784Z,84.98
2022-11-22T04:25:50.835Z,85.13
2022-11-22T04:28:24.512Z,84.67
2022-11-22T04:31:16.323Z,84.73
2022-11-22T04:33:44.491Z,84.47
2022-11-22T04:36:13.544Z,84.72
2022-11-22T04:38:42.998Z,85.39
2022-11-22T04:41:11.108Z,85.99
2022-11-22T04:43:56.374Z,86.24
2022-11-22T04:46:24.300Z,85.36
2022-11-22T04:48:52.183Z,85.40
2022-11-22T04:51:37.490Z,84.88
2022-11-22T04:54:06.820Z,85.27
2022-11-22T04:56:34.739Z,84.80
2022-11-22T04:59:02.698Z,84.63
2022-11-22T05:01:30.621Z,85.20
2022-11-22T05:03:58.481Z,85.90
2022-11-22T05:06:26.525Z,85.80
2022-11-22T05:08:54.343Z,86.43
2022-11-22T05:11:23.569Z,86.28
2022-11-22T05:13:51.640Z,86.07
2022-11-22T05:16:19.607Z,86.07
2022-11-22T05:18:59.573Z,85.60
2022-11-22T05:21:28.679Z,86.02
2022-11-22T05:23:56.577Z,85.88
2022-11-22T05:26:27.870Z,85.84
2022-11-22T05:28:58.013Z,85.99
2022-11-22T05:31:28.052Z,85.99
2022-11-22T05:33:57.769Z,85.38
2022-11-22T05:36:25.912Z,84.75
2022-11-22T05:38:54.121Z,85.36
2022-11-22T05:41:22.028Z,86.02
2022-11-22T05:43:51.349Z,85.99
2022-11-22T05:46:24.901Z,85.85
2022-11-22T05:48:54.595Z,85.58
2022-11-22T05:51:26.009Z,85.26
2022-11-22T05:53:55.900Z,85.11
2022-11-22T05:56:25.218Z,84.55
2022-11-22T05:58:54.804Z,85.32
2022-11-22T06:01:25.083Z,86.27
2022-11-22T06:03:53.620Z,85.62
2022-11-22T06:06:22.118Z,86.05
2022-11-22T06:08:51.786Z,86.37
2022-11-22T06:11:21.294Z,86.03
2022-11-22T06:13:51.148Z,87.23
2022-11-22T06:16:20.540Z,86.69
2022-11-22T06:18:48.925Z,87.58
2022-11-22T06:21:18.863Z,87.46
2022-11-22T06:23:47.114Z,88.08
2022-11-22T06:26:17.355Z,88.09
2022-11-22T06:28:46.326Z,87.76
2022-11-22T06:31:16.156Z,88.29
2022-11-22T06:33:45.811Z,88.10
2022-11-22T06:36:15.640Z,88.03
2022-11-22T06:38:44.631Z,88.18
2022-11-22T06:41:14.176Z,88.70
2022-11-22T06:43:48.322Z,89.13
2022-11-22T06:46:17.874Z,88.72
2022-11-22T06:48:48.124Z,89.09
2022-11-22T06:51:18.130Z,89.16
2022-11-22T06:53:48.484Z,90.03
2022-11-22T06:56:18.727Z,89.35
2022-11-22T06:58:47.859Z,89.83
2022-11-22T07:01:18.344Z,89.07
2022-11-22T07:03:48.515Z,89.25
2022-11-22T07:06:18.833Z,89.86
2022-11-22T07:08:48.035Z,89.60
2022-11-22T07:11:17.829Z,90.09
2022-11-22T07:13:46.591Z,89.88
2022-11-22T07:16:16.669Z,90.27
2022-11-22T07:18:45.488Z,89.91
2022-11-22T07:21:16.535Z,89.88
2022-11-22T07:23:46.467Z,89.73
2022-11-22T07:26:15.531Z,90.09
2022-11-22T07:28:44.877Z,89.41
2022-11-22T07:31:14.914Z,88.91
2022-11-22T07:33:42.955Z,89.95
2022-11-22T07:36:12.748Z,89.75
2022-11-22T07:38:42.536Z,89.78
2022-11-22T07:41:11.211Z,89.76
2022-11-22T07:43:39.488Z,89.42
2022-11-22T07:46:09.358Z,89.25
2022-11-22T07:48:37.359Z,89.55
2022-11-22T07:51:07.608Z,89.64
2022-11-22T07:53:36.679Z,89.70
2022-11-22T07:56:07.463Z,90.04
2022-11-22T07:58:36.271Z,89.91
2022-11-22T08:01:07.962Z,90.20
2022-11-22T08:03:37.622Z,89.90
2022-11-22T08:06:07.716Z,90.31
2022-11-22T08:08:37.974Z,90.06
2022-11-22T08:11:08.419Z,90.26
2022-11-22T08:13:37.407Z,89.53
2022-11-22T08:16:07.868Z,89.63
2022-11-22T08:18:38.649Z,89.98
2022-11-22T08:21:08.641Z,89.64
2022-11-22T08:23:38.392Z,89.28
2022-11-22T08:26:09.940Z,90.13
2022-11-22T08:28:38.414Z,89.26
2022-11-22T08:31:08.744Z,89.26
2022-11-22T08:33:37.174Z,89.43
2022-11-22T08:36:05.927Z,89.14
2022-11-22T08:38:34.074Z,89.89
2022-11-22T08:41:01.937Z,89.48
2022-11-22T08:43:34.619Z,89.08
2022-11-22T08:46:03.145Z,88.17
2022-11-22T08:48:33.034Z,87.99
2022-11-22T08:51:03.404Z,87.46
2022-11-22T08:53:33.697Z,87.48
2022-11-22T08:56:02.505Z,86.97
2022-11-22T08:58:33.098Z,88.19
2022-11-22T09:01:06.041Z,86.86
2022-11-22T09:03:35.439Z,86.79
2022-11-22T09:09:09.108Z,87.33
2022-11-22T09:11:40.834Z,86.65
2022-11-22T09:14:10.272Z,87.30
2022-11-22T09:16:38.219Z,87.17
2022-11-22T09:19:06.301Z,86.67
2022-11-22T09:21:34.274Z,86.48
2022-11-22T09:24:02.251Z,86.43
2022-11-22T09:26:30.770Z,86.53
2022-11-22T09:28:58.877Z,86.37
2022-11-22T09:31:28.419Z,86.65
2022-11-22T09:33:56.694Z,86.70
2022-11-22T09:36:29.460Z,87.04
2022-11-22T09:38:58.240Z,85.65
2022-11-22T09:42:03.108Z,86.07
2022-11-22T09:44:44.058Z,85.32
2022-11-22T09:47:24.716Z,86.47
2022-11-22T09:50:04.434Z,85.83
2022-11-22T09:52:39.793Z,85.46
2022-11-22T09:55:17.769Z,86.43
2022-11-22T09:57:51.164Z,85.65
2022-11-22T10:00:22.478Z,85.13
2022-11-22T10:03:00.766Z,85.44
2022-11-22T10:05:35.730Z,85.81
2022-11-22T10:08:29.273Z,86.62
2022-11-22T10:10:59.959Z,86.44
2022-11-22T10:13:35.359Z,86.32
2022-11-22T10:16:13.307Z,85.83
2022-11-22T10:18:46.787Z,86.64
2022-11-22T10:21:16.006Z,86.60
2022-11-22T10:23:45.633Z,86.24
2022-11-22T10:26:23.513Z,86.01
2022-11-22T10:29:02.787Z,86.62
2022-11-22T10:31:46.067Z,86.91
2022-11-22T10:34:27.096Z,87.43
2022-11-22T10:37:03.560Z,87.92
2022-11-22T10:39:48.310Z,87.74
2022-11-22T10:42:33.628Z,86.25
2022-11-22T10:45:09.309Z,86.96
2022-11-22T10:47:57.735Z,86.90
2022-11-22T10:50:33.320Z,86.86
2022-11-22T10:53:06.237Z,87.10
2022-11-22T10:55:59.228Z,87.49
2022-11-22T10:58:38.178Z,86.41
2022-11-22T11:01:19.551Z,86.33
2022-11-22T11:03:50.183Z,86.59
2022-11-22T11:06:33.289Z,85.44
2022-11-22T11:12:16.313Z,85.81
2022-11-22T11:14:49.569Z,86.22
2022-11-22T11:17:27.613Z,85.72
2022-11-22T11:20:00.605Z,85.96
2022-11-22T11:23:12.638Z,86.15
2022-11-22T11:25:33.778Z,86.13
2022-11-22T11:28:06.189Z,86.31
2022-11-22T11:30:40.592Z,86.54
2022-11-22T11:33:20.302Z,86.24
2022-11-22T11:35:48.781Z,86.58
2022-11-22T11:38:33.100Z,85.82
2022-11-22T11:41:18.790Z,85.51
2022-11-22T11:43:50.543Z,85.12
2022-11-22T11:46:23.198Z,84.63
2022-11-22T11:48:52.113Z,84.95
2022-11-22T11:51:27.034Z,84.55
2022-11-22T11:54:11.168Z,84.82
2022-11-22T11:56:53.163Z,84.67
2022-11-22T11:59:27.035Z,85.66
2022-11-22T12:01:59.681Z,84.64
2022-11-22T12:04:30.897Z,86.03
2022-11-22T12:07:04.339Z,86.15
2022-11-22T12:09:46.784Z,86.36
2022-11-22T12:12:26.433Z,85.88
2022-11-22T12:15:11.167Z,85.71
2022-11-22T12:17:50.231Z,86.61
2022-11-22T12:20:23.774Z,86.02
2022-11-22T12:23:05.040Z,86.24
2022-11-22T12:25:38.052Z,86.89
2022-11-22T12:28:18.698Z,87.15
2022-11-22T12:30:49.997Z,87.82
2022-11-22T12:33:25.547Z,88.62
2022-11-22T12:35:56.680Z,89.05
2022-11-22T12:38:30.343Z,89.18
2022-11-22T12:41:04.414Z,88.75
2022-11-22T12:43:39.280Z,88.64
2022-11-22T12:46:13.683Z,89.14
2022-11-22T12:48:49.217Z,88.89
2022-11-22T12:51:26.904Z,88.47
2022-11-22T12:54:04.531Z,89.90
2022-11-22T12:56:41.817Z,88.97
2022-11-22T12:59:21.275Z,88.03
2022-11-22T13:01:53.874Z,87.32
2022-11-22T13:04:31.599Z,87.41
2022-11-22T13:07:08.568Z,88.03
2022-11-22T13:09:40.139Z,87.11
2022-11-22T13:12:13.002Z,87.60
2022-11-22T13:14:45.731Z,88.80
2022-11-22T13:17:18.011Z,87.68
2022-11-22T13:19:50.360Z,88.59
2022-11-22T13:22:31.312Z,87.16
2022-11-22T13:25:13.347Z,86.58
2022-11-22T13:27:46.244Z,87.12
2022-11-22T13:30:21.065Z,85.96
2022-11-22T13:32:52.003Z,86.97
2022-11-22T13:35:27.376Z,86.32
2022-11-22T13:37:58.787Z,86.66
2022-11-22T13:40:30.674Z,86.81
2022-11-22T13:43:35.061Z,86.51
2022-11-22T13:46:05.610Z,85.88
2022-11-22T13:49:10.860Z,86.49
2022-11-22T13:51:56.857Z,85.82
2022-11-22T13:55:04.004Z,86.77
2022-11-22T13:57:35.743Z,86.66
2022-11-22T14:00:49.488Z,86.50
2022-11-22T14:03:43.127Z,85.50
2022-11-22T14:06:32.359Z,86.29
2022-11-22T14:09:18.148Z,85.89
2022-11-22T14:12:01.160Z,85.05
2022-11-22T14:14:38.273Z,84.29
2022-11-22T14:17:16.562Z,84.58
2022-11-22T14:20:01.118Z,84.46
2022-11-22T14:22:45.598Z,85.96
2022-11-22T14:25:42.559Z,85.09
2022-11-22T14:28:23.170Z,86.53
2022-11-22T14:30:52.859Z,86.26
2022-11-22T14:33:22.304Z,86.82
2022-11-22T14:36:17.072Z,87.65
2022-11-22T14:38:48.339Z,87.60
2022-11-22T14:41:44.981Z,88.15
2022-11-22T14:44:19.716Z,87.98
2022-11-22T14:46:57.053Z,87.76
2022-11-22T14:49:37.387Z,87.89
2022-11-22T14:52:15.887Z,88.47
2022-11-22T14:54:49.943Z,88.99
2022-11-22T14:57:22.082Z,88.59
2022-11-22T15:00:18.108Z,89.15
2022-11-22T15:03:16.678Z,88.96
2022-11-22T15:09:14.768Z,88.91
2022-11-22T15:09:25.517Z,88.56
2022-11-22T15:12:14.739Z,89.34
2022-11-22T15:59:10.926Z,87.95
2022-11-22T16:01:45.789Z,87.53
2022-11-22T16:04:23.189Z,86.54
2022-11-22T16:06:53.003Z,86.88
2022-11-22T16:09:27.135Z,87.11
2022-11-22T16:12:01.447Z,87.26
2022-11-22T16:14:44.738Z,87.22
2022-11-22T16:17:26.172Z,86.77
2022-11-22T16:19:54.353Z,87.07
2022-11-22T16:22:32.813Z,85.69
2022-11-22T16:25:22.443Z,86.56
2022-11-22T16:27:50.751Z,86.06
2022-11-22T16:30:23.439Z,86.36
2022-11-22T16:32:56.524Z,87.47
2022-11-22T16:35:31.453Z,87.00
2022-11-22T16:37:59.438Z,86.17
2022-11-22T16:40:27.570Z,86.33
2022-11-22T16:42:55.413Z,86.30
2022-11-22T16:45:24.020Z,85.47
2022-11-22T16:48:16.601Z,85.38
2022-11-22T16:50:45.141Z,86.53
2022-11-22T16:53:15.643Z,85.80
2022-11-22T16:55:44.462Z,85.78
2022-11-22T16:58:18.252Z,86.27
2022-11-22T17:00:47.835Z,86.04
2022-11-22T17:03:20.640Z,86.16
2022-11-22T17:05:48.600Z,86.16
2022-11-22T17:08:18.447Z,86.02
2022-11-22T17:10:48.586Z,86.42
2022-11-22T17:13:21.920Z,85.35
2022-11-22T17:15:50.191Z,86.32
2022-11-22T17:18:19.647Z,84.93
2022-11-22T17:20:48.097Z,84.04
2022-11-22T17:23:21.036Z,84.77
2022-11-22T17:25:49.107Z,85.43
2022-11-22T17:28:17.297Z,84.91
2022-11-22T17:30:45.669Z,84.74
2022-11-22T17:33:13.793Z,85.31
2022-11-22T17:35:43.296Z,84.67
2022-11-22T17:38:13.175Z,85.28
2022-11-22T17:40:42.426Z,84.97
2022-11-22T17:43:10.915Z,84.80
2022-11-22T17:45:43.151Z,85.85
2022-11-22T17:48:13.539Z,84.68
2022-11-22T17:50:43.155Z,84.44
2022-11-22T17:53:13.824Z,84.65
2022-11-22T17:56:08.964Z,85.94
2022-11-22T17:58:30.150Z,85.30
2022-11-22T18:01:05.783Z,85.62
2022-11-22T18:03:37.031Z,86.35
2022-11-22T18:06:06.969Z,85.94
2022-11-22T18:08:35.388Z,85.80
2022-11-22T18:11:03.910Z,85.56
2022-11-22T18:13:33.374Z,86.08
2022-11-22T18:16:03.950Z,84.98
2022-11-22T18:18:55.606Z,85.81
2022-11-22T18:21:22.424Z,85.62
2022-11-22T18:23:50.873Z,84.84
2022-11-22T18:31:55.430Z,86.32
2022-11-22T18:34:23.852Z,87.97
2022-11-22T18:36:55.802Z,87.33
2022-11-22T18:39:27.911Z,87.66
2022-11-22T18:41:55.947Z,88.40
2022-11-22T18:44:23.968Z,88.08
2022-11-22T18:46:52.215Z,88.89
2022-11-22T18:49:20.225Z,88.71
2022-11-22T18:51:48.118Z,89.01
2022-11-22T18:54:18.375Z,89.69
2022-11-22T18:56:46.308Z,90.04
2022-11-22T18:59:14.607Z,88.90
2022-11-22T19:01:43.071Z,90.05
2022-11-22T19:04:12.942Z,89.41
2022-11-22T19:06:41.963Z,89.95
2022-11-22T19:09:10.757Z,90.01
2022-11-22T19:11:40.447Z,89.92
2022-11-22T19:14:11.697Z,89.05
2022-11-22T19:16:39.891Z,89.49
2022-11-22T19:19:10.858Z,89.77
2022-11-22T19:21:38.911Z,88.97
2022-11-22T19:24:07.532Z,88.95
2022-11-22T19:26:37.251Z,89.45
2022-11-22T19:29:06.716Z,90.13
2022-11-22T19:31:37.181Z,89.99
2022-11-22T19:34:05.997Z,89.30
2022-11-22T19:36:36.422Z,89.73
2022-11-22T19:39:06.206Z,89.87
2022-11-22T19:41:35.995Z,90.06
2022-11-22T19:44:05.052Z,89.71
2022-11-22T19:46:39.224Z,89.86
2022-11-22T19:49:07.353Z,89.40
2022-11-22T19:51:36.997Z,90.13
2022-11-22T19:54:05.723Z,90.20
2022-11-22T19:56:35.767Z,90.80
2022-11-22T19:59:08.682Z,90.79
2022-11-22T20:01:41.563Z,91.21
2022-11-22T20:04:10.602Z,90.47
2022-11-22T20:06:38.641Z,90.87
2022-11-22T20:09:10.251Z,90.49
2022-11-22T20:11:38.969Z,91.58
2022-11-22T20:14:07.741Z,91.16
2022-11-22T20:16:36.218Z,91.06
2022-11-22T20:19:09.931Z,90.42
2022-11-22T20:21:39.383Z,91.26
2022-11-22T20:24:07.909Z,92.04
2022-11-22T20:26:36.644Z,90.99
2022-11-22T20:29:07.521Z,91.58
2022-11-22T20:31:37.490Z,90.82
2022-11-22T20:34:07.511Z,90.17
2022-11-22T20:36:36.581Z,90.51
2022-11-22T20:42:05.874Z,91.43
2022-11-22T20:44:38.685Z,92.29
2022-11-22T20:47:08.788Z,91.79
2022-11-22T20:49:43.926Z,92.41
2022-11-22T20:52:13.617Z,93.36
2022-11-22T20:54:41.586Z,92.88
2022-11-22T20:57:09.771Z,92.96
2022-11-22T20:59:37.901Z,92.66
2022-11-22T21:02:09.289Z,93.23
2022-11-22T21:04:39.064Z,93.73
2022-11-22T21:07:07.086Z,93.82
2022-11-22T21:09:35.154Z,93.01
2022-11-22T21:12:03.414Z,93.43
2022-11-22T21:14:32.109Z,92.38
2022-11-22T21:17:16.353Z,92.94
2022-11-22T21:19:49.897Z,92.05
2022-11-22T21:22:18.210Z,91.75
2022-11-22T21:24:46.437Z,91.36
2022-11-22T21:27:14.750Z,91.08
2022-11-22T21:29:43.021Z,90.92
2022-11-22T21:32:11.090Z,91.00
2022-11-22T21:34:39.464Z,92.30
2022-11-22T21:37:08.815Z,91.86
2022-11-22T21:39:37.173Z,92.33
2022-11-22T21:42:05.531Z,91.78
2022-11-22T21:44:33.873Z,91.79
2022-11-22T21:47:02.135Z,92.33
2022-11-22T21:49:30.436Z,92.58
2022-11-22T21:51:59.063Z,93.04
2022-11-22T21:54:28.617Z,93.65
2022-11-22T21:57:01.356Z,92.85
2022-11-22T21:59:31.133Z,92.02
2022-11-22T22:01:59.328Z,92.19
2022-11-22T22:04:28.670Z,91.09
2022-11-22T22:06:56.729Z,91.66
2022-11-22T22:09:24.831Z,91.66
2022-11-22T22:11:54.216Z,91.35
2022-11-22T22:14:22.076Z,91.65
2022-11-22T22:16:50.933Z,91.84
2022-11-22T22:19:19.478Z,91.15
2022-11-22T22:21:48.033Z,91.34
2022-11-22T22:24:16.586Z,90.06
2022-11-22T22:26:45.238Z,90.38
2022-11-22T22:29:15.081Z,89.46
2022-11-22T22:31:43.041Z,89.71
2022-11-22T22:34:11.084Z,90.00
2022-11-22T22:36:38.942Z,89.39
2022-11-22T22:39:07.437Z,88.79
2022-11-22T22:41:35.464Z,88.91
2022-11-22T22:44:03.384Z,89.36
2022-11-22T22:46:32.903Z,89.79
2022-11-22T22:49:00.957Z,89.60
2022-11-22T22:51:33.325Z,89.71
2022-11-22T22:54:03.421Z,89.71
2022-11-22T22:56:32.357Z,90.35
2022-11-22T22:59:01.668Z,90.56
2022-11-22T23:01:32.530Z,90.83
2022-11-22T23:04:02.307Z,91.03
2022-11-22T23:06:31.993Z,91.09
2022-11-22T23:09:00.355Z,92.03
2022-11-22T23:11:44.060Z,91.54
2022-11-22T23:14:12.368Z,91.03
2022-11-22T23:16:41.719Z,90.98
2022-11-22T23:19:10.515Z,91.56
2022-11-22T23:21:38.788Z,91.29
2022-11-22T23:24:07.873Z,91.21
2022-11-22T23:26:36.441Z,90.79
2022-11-22T23:29:05.475Z,89.97
2022-11-22T23:31:33.639Z,90.64
2022-11-22T23:34:03.267Z,89.41
2022-11-22T23:36:32.923Z,90.05
2022-11-22T23:39:04.039Z,89.28
2022-11-22T23:41:31.961Z,89.41
2022-11-22T23:44:01.324Z,89.32
2022-11-22T23:46:29.513Z,89.66
2022-11-22T23:48:59.449Z,89.29
2022-11-22T23:51:29.859Z,88.92
2022-11-22T23:53:58.589Z,89.93
2022-11-22T23:56:29.100Z,89.28
2022-11-22T23:58:58.904Z,88.63
